Time;durP1;ratioP1;P1;durP2;ratioP2;P2;SDS_P1;SDS_P2;PMS_P1;PMS_P2;Temp;Humidity;BMP_temperature;BMP_pressure;BME280_temperature;BME280_humidity;BME280_pressure;Samples;Min_cycle;Max_cycle;Signal;HPM_P1;HPM_P2
2021/06/21 00:01:18;;;;;;;17.40;12.60;;;;;;;;;;5052101;28;20021;-85
2021/06/21 00:03:44;;;;;;;20.08;13.95;;;;;;;;;;5052661;28;20024;-85
2021/06/21 00:06:09;;;;;;;25.10;13.27;;;;;;;;;;5052171;28;20384;-83
2021/06/21 00:08:34;;;;;;;18.05;11.73;;;;;;;;;;5051703;28;20013;-84
2021/06/21 00:10:59;;;;;;;19.65;13.70;;;;;;;;;;5052452;28;20024;-84
2021/06/21 00:13:25;;;;;;;17.90;13.27;;;;;;;;;;5051854;28;20036;-84
2021/06/21 00:15:52;;;;;;;18.67;13.10;;;;;;;;;;5052245;28;20021;-85
2021/06/21 00:18:17;;;;;;;19.73;13.77;;;;;;;;;;5051719;28;20021;-84
2021/06/21 00:20:42;;;;;;;16.23;12.93;;;;;;;;;;5051795;28;20032;-84
2021/06/21 00:23:08;;;;;;;20.23;13.25;;;;;;;;;;5076887;28;20524;-85
2021/06/21 00:25:33;;;;;;;22.75;13.45;;;;;;;;;;5080534;28;20028;-85
2021/06/21 00:27:58;;;;;;;20.02;13.35;;;;;;;;;;5051831;28;20052;-85
2021/06/21 00:30:24;;;;;;;17.88;13.15;;;;;;;;;;5051386;28;20043;-85
2021/06/21 00:32:49;;;;;;;18.98;13.15;;;;;;;;;;5051976;28;20028;-84
2021/06/21 00:35:15;;;;;;;28.65;12.65;;;;;;;;;;5051625;28;20029;-85
2021/06/21 00:37:41;;;;;;;18.55;13.85;;;;;;;;;;5081794;28;20067;-85
2021/06/21 00:40:07;;;;;;;21.15;12.75;;;;;;;;;;5051636;28;20025;-85
2021/06/21 00:42:33;;;;;;;21.40;13.73;;;;;;;;;;5051212;28;20024;-84
2021/06/21 00:44:59;;;;;;;19.42;13.70;;;;;;;;;;5051920;28;20021;-85
2021/06/21 00:47:24;;;;;;;18.33;12.60;;;;;;;;;;5051531;28;20383;-85
2021/06/21 00:49:49;;;;;;;20.73;13.10;;;;;;;;;;5076466;28;20717;-85
2021/06/21 00:52:18;;;;;;;19.17;12.98;;;;;;;;;;5052781;28;20222;-85
2021/06/21 00:54:44;;;;;;;17.83;13.25;;;;;;;;;;5084440;28;20029;-84
2021/06/21 00:57:09;;;;;;;21.40;14.02;;;;;;;;;;5051592;28;20391;-85
2021/06/21 00:59:35;;;;;;;23.42;12.88;;;;;;;;;;5051326;28;20055;-84
2021/06/21 01:02:00;;;;;;;19.48;13.43;;;;;;;;;;5051319;28;20033;-85
2021/06/21 01:04:25;;;;;;;23.00;13.35;;;;;;;;;;5051602;28;20032;-86
2021/06/21 01:06:50;;;;;;;22.33;13.55;;;;;;;;;;5078181;28;20041;-85
2021/06/21 01:09:15;;;;;;;25.05;12.52;;;;;;;;;;5051062;28;20048;-85
2021/06/21 01:11:55;;;;;;;19.08;11.93;;;;;;;;;;5084341;28;20056;-85
2021/06/21 01:14:29;;;;;;;21.80;12.65;;;;;;;;;;5045401;28;20105;-85
2021/06/21 01:17:00;;;;;;;18.65;12.68;;;;;;;;;;5076110;28;20025;-86
2021/06/21 01:19:40;;;;;;;15.18;10.95;;;;;;;;;;5052182;28;20027;-84
2021/06/21 01:22:18;;;;;;;22.60;10.25;;;;;;;;;;5075703;28;20028;-85
2021/06/21 01:25:02;;;;;;;20.00;10.93;;;;;;;;;;5050656;28;20472;-85
2021/06/21 01:27:30;;;;;;;22.73;11.35;;;;;;;;;;5063417;28;20536;-86
2021/06/21 01:29:55;;;;;;;21.88;11.88;;;;;;;;;;5050722;28;20035;-85
2021/06/21 01:32:39;;;;;;;24.55;11.10;;;;;;;;;;5051252;28;20033;-85
2021/06/21 01:35:06;;;;;;;15.45;10.98;;;;;;;;;;5058605;28;20048;-85
2021/06/21 01:37:31;;;;;;;28.50;11.60;;;;;;;;;;5052029;28;20028;-86
2021/06/21 01:39:58;;;;;;;14.75;10.82;;;;;;;;;;5050321;28;20735;-85
2021/06/21 01:42:28;;;;;;;20.13;10.55;;;;;;;;;;5078158;28;20472;-86
2021/06/21 01:44:55;;;;;;;15.35;10.35;;;;;;;;;;5050560;28;20444;-87
2021/06/21 01:47:22;;;;;;;17.55;10.68;;;;;;;;;;5051855;28;20380;-86
2021/06/21 01:49:48;;;;;;;15.60;9.80;;;;;;;;;;5050488;28;20032;-86
2021/06/21 01:52:14;;;;;;;14.70;10.68;;;;;;;;;;5049928;28;20472;-87
2021/06/21 01:54:43;;;;;;;18.85;11.20;;;;;;;;;;5050620;28;20451;-85
2021/06/21 01:57:08;;;;;;;13.65;10.35;;;;;;;;;;5050022;28;20074;-87
2021/06/21 01:59:34;;;;;;;19.90;10.65;;;;;;;;;;5050681;28;20029;-87
2021/06/21 02:02:00;;;;;;;17.25;10.15;;;;;;;;;;5051668;28;20028;-86
2021/06/21 02:04:26;;;;;;;12.68;9.05;;;;;;;;;;5050109;28;20025;-86
2021/06/21 02:06:52;;;;;;;13.57;9.43;;;;;;;;;;5050116;28;20017;-86
2021/06/21 02:09:21;;;;;;;14.77;9.88;;;;;;;;;;5050092;28;20017;-86
2021/06/21 02:11:47;;;;;;;20.83;10.43;;;;;;;;;;5050061;28;20432;-86
2021/06/21 02:14:12;;;;;;;18.63;9.95;;;;;;;;;;5050057;28;20017;-86
2021/06/21 02:16:37;;;;;;;13.40;10.10;;;;;;;;;;5050008;28;20100;-86
2021/06/21 02:19:02;;;;;;;15.38;9.10;;;;;;;;;;5050456;28;20029;-86
2021/06/21 02:21:28;;;;;;;13.68;9.95;;;;;;;;;;5049735;28;20025;-86
2021/06/21 02:23:54;;;;;;;12.05;8.65;;;;;;;;;;5050392;28;20017;-85
2021/06/21 02:26:19;;;;;;;19.98;10.10;;;;;;;;;;5050030;28;20357;-86
2021/06/21 02:28:45;;;;;;;11.98;8.23;;;;;;;;;;5049949;28;20045;-86
2021/06/21 02:31:10;;;;;;;14.02;7.55;;;;;;;;;;5050428;28;20379;-86
2021/06/21 02:33:35;;;;;;;12.82;8.48;;;;;;;;;;5053570;28;20067;-85
2021/06/21 02:36:01;;;;;;;12.13;7.60;;;;;;;;;;5054333;28;20449;-87
2021/06/21 02:38:26;;;;;;;11.20;7.05;;;;;;;;;;5085781;28;20017;-86
2021/06/21 02:40:51;;;;;;;10.00;7.95;;;;;;;;;;5054539;28;20109;-86
2021/06/21 02:43:17;;;;;;;10.55;6.75;;;;;;;;;;5054073;28;20066;-86
2021/06/21 02:45:42;;;;;;;11.38;7.63;;;;;;;;;;5054984;28;20429;-86
2021/06/21 02:48:09;;;;;;;8.13;6.53;;;;;;;;;;5055316;28;20024;-85
2021/06/21 02:50:35;;;;;;;8.27;5.93;;;;;;;;;;5054898;28;20114;-86
2021/06/21 02:53:08;;;;;;;9.20;5.32;;;;;;;;;;5053829;28;20484;-86
2021/06/21 02:55:34;;;;;;;12.63;5.55;;;;;;;;;;5053480;28;20074;-86
2021/06/21 02:58:01;;;;;;;9.35;5.55;;;;;;;;;;5055027;28;20020;-85
2021/06/21 03:00:27;;;;;;;5.90;4.93;;;;;;;;;;5053272;28;20044;-85
2021/06/21 03:02:55;;;;;;;8.00;5.03;;;;;;;;;;5053237;28;20732;-85
2021/06/21 03:05:21;;;;;;;9.52;5.15;;;;;;;;;;5053621;28;20013;-86
2021/06/21 03:07:48;;;;;;;10.13;5.28;;;;;;;;;;5053313;28;20013;-85
2021/06/21 03:10:14;;;;;;;9.98;4.32;;;;;;;;;;5053572;28;20056;-85
2021/06/21 03:12:41;;;;;;;8.57;4.43;;;;;;;;;;5052861;28;20048;-85
2021/06/21 03:15:07;;;;;;;5.88;4.28;;;;;;;;;;5053072;28;20107;-86
2021/06/21 03:17:34;;;;;;;5.63;3.78;;;;;;;;;;5053289;28;20461;-85
2021/06/21 03:19:59;;;;;;;4.65;3.63;;;;;;;;;;5053165;28;20367;-86
2021/06/21 03:22:26;;;;;;;5.40;3.78;;;;;;;;;;5053496;28;20051;-85
2021/06/21 03:24:52;;;;;;;7.25;3.75;;;;;;;;;;5052728;28;20484;-85
2021/06/21 03:27:17;;;;;;;10.50;3.40;;;;;;;;;;5053258;28;20024;-85
2021/06/21 03:29:44;;;;;;;4.18;3.35;;;;;;;;;;5053274;28;20025;-85
2021/06/21 03:32:32;;;;;;;4.30;3.08;;;;;;;;;;5052787;28;20456;-85
2021/06/21 03:34:59;;;;;;;3.47;3.17;;;;;;;;;;5047262;28;20033;-85
2021/06/21 03:37:24;;;;;;;4.93;3.30;;;;;;;;;;5053060;28;20033;-86
2021/06/21 03:39:49;;;;;;;3.75;3.03;;;;;;;;;;5052764;28;20017;-85
2021/06/21 03:42:15;;;;;;;5.28;3.55;;;;;;;;;;5053276;28;20024;-85
2021/06/21 03:44:40;;;;;;;4.07;3.33;;;;;;;;;;5075335;28;20039;-85
2021/06/21 03:47:06;;;;;;;6.47;3.38;;;;;;;;;;5050979;28;20021;-85
2021/06/21 03:49:31;;;;;;;12.25;3.60;;;;;;;;;;5052764;28;20537;-85
2021/06/21 03:51:56;;;;;;;4.35;3.22;;;;;;;;;;5051928;28;20104;-86
2021/06/21 03:54:22;;;;;;;4.10;2.92;;;;;;;;;;5052679;28;20009;-85
2021/06/21 03:56:47;;;;;;;5.93;3.13;;;;;;;;;;5052474;28;20079;-84
2021/06/21 03:59:12;;;;;;;3.70;3.25;;;;;;;;;;5052170;28;20487;-85
2021/06/21 04:01:38;;;;;;;7.22;4.38;;;;;;;;;;5052471;28;20125;-85
2021/06/21 04:04:03;;;;;;;6.38;3.90;;;;;;;;;;5052155;28;20464;-84
2021/06/21 04:06:28;;;;;;;5.18;3.53;;;;;;;;;;5052512;28;20075;-86
2021/06/21 04:08:54;;;;;;;4.43;3.75;;;;;;;;;;5052149;28;20016;-85
2021/06/21 04:11:19;;;;;;;5.93;3.35;;;;;;;;;;5053389;28;20376;-85
2021/06/21 04:13:44;;;;;;;8.32;3.85;;;;;;;;;;5052227;28;20392;-85
2021/06/21 04:16:09;;;;;;;4.90;3.47;;;;;;;;;;5052007;28;20063;-85
2021/06/21 04:18:34;;;;;;;3.72;3.33;;;;;;;;;;5052383;28;20472;-85
2021/06/21 04:21:00;;;;;;;4.43;3.63;;;;;;;;;;5052060;28;20028;-85
2021/06/21 04:23:25;;;;;;;4.00;3.00;;;;;;;;;;5053277;28;20041;-84
2021/06/21 04:25:50;;;;;;;4.68;3.33;;;;;;;;;;5052000;28;20025;-85
2021/06/21 04:28:15;;;;;;;5.15;3.50;;;;;;;;;;5052806;28;20021;-85
2021/06/21 04:30:41;;;;;;;3.85;3.30;;;;;;;;;;5051690;28;20028;-85
2021/06/21 04:33:06;;;;;;;6.65;3.95;;;;;;;;;;5051958;28;20024;-85
2021/06/21 04:35:32;;;;;;;5.78;3.55;;;;;;;;;;5051498;28;20111;-85
2021/06/21 04:37:57;;;;;;;4.38;3.53;;;;;;;;;;5053044;28;20021;-85
2021/06/21 04:40:24;;;;;;;4.53;3.75;;;;;;;;;;5050810;28;20029;-85
2021/06/21 04:42:49;;;;;;;4.93;3.90;;;;;;;;;;5051637;28;20025;-85
2021/06/21 04:45:15;;;;;;;5.88;3.80;;;;;;;;;;5051678;28;20384;-85
2021/06/21 04:47:40;;;;;;;4.72;4.18;;;;;;;;;;5051645;28;20029;-85
2021/06/21 04:50:08;;;;;;;6.00;3.35;;;;;;;;;;5051602;28;20790;-85
2021/06/21 04:52:39;;;;;;;4.20;3.20;;;;;;;;;;5050514;28;20028;-86
2021/06/21 04:55:05;;;;;;;5.07;3.53;;;;;;;;;;5051471;28;20436;-85
2021/06/21 04:57:31;;;;;;;6.45;3.30;;;;;;;;;;5051233;28;20464;-85
2021/06/21 04:59:56;;;;;;;5.18;3.97;;;;;;;;;;5051432;28;20050;-86
2021/06/21 05:02:22;;;;;;;4.75;3.58;;;;;;;;;;5051248;28;20091;-85
2021/06/21 05:04:47;;;;;;;4.25;3.58;;;;;;;;;;5050993;28;20031;-85
2021/06/21 05:07:12;;;;;;;3.88;3.10;;;;;;;;;;5051079;28;20017;-84
2021/06/21 05:09:38;;;;;;;4.55;2.80;;;;;;;;;;5050957;28;20036;-85
2021/06/21 05:12:03;;;;;;;8.73;2.80;;;;;;;;;;5050763;28;20131;-85
2021/06/21 05:14:28;;;;;;;3.13;2.83;;;;;;;;;;5084420;28;20021;-85
2021/06/21 05:16:54;;;;;;;5.97;3.30;;;;;;;;;;5051074;28;20052;-85
2021/06/21 05:19:19;;;;;;;8.40;2.92;;;;;;;;;;5050814;28;20024;-85
2021/06/21 05:21:44;;;;;;;4.53;2.35;;;;;;;;;;5050631;28;20025;-84
2021/06/21 05:24:10;;;;;;;3.75;2.70;;;;;;;;;;5051130;28;20027;-85
2021/06/21 05:26:35;;;;;;;3.97;3.10;;;;;;;;;;5050542;28;20706;-85
2021/06/21 05:29:00;;;;;;;6.70;2.67;;;;;;;;;;5051893;28;20504;-85
2021/06/21 05:31:25;;;;;;;5.72;2.60;;;;;;;;;;5050937;28;20444;-85
2021/06/21 05:33:51;;;;;;;4.25;2.60;;;;;;;;;;5050488;28;20028;-85
2021/06/21 05:36:16;;;;;;;7.97;2.63;;;;;;;;;;5050743;28;20025;-85
2021/06/21 05:38:41;;;;;;;4.85;2.35;;;;;;;;;;5051933;28;20028;-85
2021/06/21 05:41:06;;;;;;;2.72;2.00;;;;;;;;;;5050239;28;20032;-85
2021/06/21 05:43:32;;;;;;;4.65;2.90;;;;;;;;;;5050297;28;20017;-85
2021/06/21 05:45:57;;;;;;;2.75;2.00;;;;;;;;;;5050640;28;20027;-85
2021/06/21 05:48:22;;;;;;;8.02;2.50;;;;;;;;;;5050775;28;20524;-85
2021/06/21 05:50:47;;;;;;;5.00;2.03;;;;;;;;;;5048724;28;20147;-84
2021/06/21 05:53:13;;;;;;;4.05;2.10;;;;;;;;;;5051360;28;20056;-85
2021/06/21 05:55:38;;;;;;;2.95;2.20;;;;;;;;;;5049897;28;20035;-85
2021/06/21 05:58:03;;;;;;;5.20;1.80;;;;;;;;;;5049582;28;20040;-84
2021/06/21 06:00:28;;;;;;;6.00;1.95;;;;;;;;;;5048660;28;20342;-85
2021/06/21 06:02:53;;;;;;;2.97;1.52;;;;;;;;;;5049017;28;20146;-85
2021/06/21 06:05:19;;;;;;;3.05;1.50;;;;;;;;;;5051483;28;20028;-85
2021/06/21 06:07:45;;;;;;;6.32;1.48;;;;;;;;;;5055825;28;20020;-86
2021/06/21 06:10:11;;;;;;;1.85;1.40;;;;;;;;;;5056641;28;20484;-85
2021/06/21 06:12:36;;;;;;;4.25;1.70;;;;;;;;;;5056542;28;20480;-86
2021/06/21 06:15:02;;;;;;;2.45;1.67;;;;;;;;;;5056909;28;20490;-85
2021/06/21 06:17:27;;;;;;;3.53;1.73;;;;;;;;;;5056560;28;20033;-85
2021/06/21 06:19:52;;;;;;;3.47;1.75;;;;;;;;;;5058291;28;20017;-85
2021/06/21 06:22:18;;;;;;;2.33;1.80;;;;;;;;;;5057786;28;20090;-85
2021/06/21 06:24:43;;;;;;;2.28;1.50;;;;;;;;;;5057702;28;20464;-85
2021/06/21 06:27:08;;;;;;;2.50;1.42;;;;;;;;;;5056937;28;20048;-85
2021/06/21 06:29:34;;;;;;;2.92;1.70;;;;;;;;;;5056658;28;20104;-85
2021/06/21 06:32:00;;;;;;;2.63;1.58;;;;;;;;;;5057959;28;20047;-85
2021/06/21 06:34:25;;;;;;;2.80;1.90;;;;;;;;;;5056079;28;20025;-85
2021/06/21 06:36:51;;;;;;;4.70;1.73;;;;;;;;;;5057917;28;20476;-85
2021/06/21 06:39:16;;;;;;;4.80;1.73;;;;;;;;;;5058103;28;20009;-84
2021/06/21 06:41:42;;;;;;;5.05;1.80;;;;;;;;;;5055861;28;20032;-84
2021/06/21 06:44:07;;;;;;;3.90;1.73;;;;;;;;;;5050334;28;20085;-85
2021/06/21 06:46:32;;;;;;;3.25;1.73;;;;;;;;;;5056185;28;20021;-85
2021/06/21 06:48:58;;;;;;;1.73;1.45;;;;;;;;;;5048433;28;20401;-85
2021/06/21 06:51:24;;;;;;;2.22;1.83;;;;;;;;;;5040417;28;20041;-85
2021/06/21 06:53:54;;;;;;;2.47;1.60;;;;;;;;;;5056313;28;20033;-85
2021/06/21 06:59:04;;;;;;;3.05;1.60;;;;;;;;;;5057785;28;20039;-86
2021/06/21 07:01:29;;;;;;;2.50;1.70;;;;;;;;;;5056840;28;20033;-84
2021/06/21 07:03:54;;;;;;;3.30;1.70;;;;;;;;;;5056262;28;20076;-86
2021/06/21 07:06:19;;;;;;;2.65;1.80;;;;;;;;;;5056651;28;20021;-86
2021/06/21 07:08:45;;;;;;;2.47;1.73;;;;;;;;;;5057706;28;20483;-85
2021/06/21 07:11:11;;;;;;;2.45;1.60;;;;;;;;;;5056706;28;20055;-85
2021/06/21 07:13:36;;;;;;;2.78;1.52;;;;;;;;;;5056785;28;20025;-86
2021/06/21 07:16:01;;;;;;;3.65;1.58;;;;;;;;;;5056701;28;20036;-87
2021/06/21 07:18:26;;;;;;;2.85;2.03;;;;;;;;;;5053769;28;20063;-88
2021/06/21 07:20:51;;;;;;;2.70;2.20;;;;;;;;;;5053579;28;20415;-87
2021/06/21 07:23:17;;;;;;;3.28;2.47;;;;;;;;;;5047337;28;20017;-87
2021/06/21 07:25:44;;;;;;;4.55;2.10;;;;;;;;;;5045226;28;20022;-88
2021/06/21 07:28:11;;;;;;;4.07;2.25;;;;;;;;;;5040195;28;20021;-87
2021/06/21 07:30:36;;;;;;;5.22;2.40;;;;;;;;;;5053212;28;20028;-86
2021/06/21 07:33:01;;;;;;;5.40;2.60;;;;;;;;;;5053663;28;20021;-87
2021/06/21 07:35:27;;;;;;;3.45;2.28;;;;;;;;;;5053258;28;20028;-86
2021/06/21 07:37:52;;;;;;;6.43;2.13;;;;;;;;;;5054701;28;20021;-87
2021/06/21 07:40:17;;;;;;;4.60;2.28;;;;;;;;;;5053448;28;20021;-87
2021/06/21 07:42:42;;;;;;;3.15;1.90;;;;;;;;;;5053708;28;20048;-87
2021/06/21 07:45:08;;;;;;;4.32;2.20;;;;;;;;;;5054318;28;20052;-88
2021/06/21 07:47:33;;;;;;;3.97;1.98;;;;;;;;;;5052999;28;20027;-87
2021/06/21 07:49:58;;;;;;;3.00;1.65;;;;;;;;;;5050109;28;20028;-87
2021/06/21 07:52:23;;;;;;;3.40;1.50;;;;;;;;;;5046628;28;20037;-87
2021/06/21 07:54:49;;;;;;;1.63;1.20;;;;;;;;;;5052882;28;20079;-88
2021/06/21 07:57:15;;;;;;;2.15;1.50;;;;;;;;;;5046963;28;20112;-88
2021/06/21 07:59:40;;;;;;;6.43;1.02;;;;;;;;;;5049222;28;20112;-87
2021/06/21 08:02:05;;;;;;;3.42;1.50;;;;;;;;;;5053849;28;20059;-87
2021/06/21 08:04:30;;;;;;;7.78;1.60;;;;;;;;;;5053535;28;20021;-88
2021/06/21 08:06:56;;;;;;;3.08;1.40;;;;;;;;;;5053341;28;20100;-88
2021/06/21 08:09:21;;;;;;;3.08;1.73;;;;;;;;;;5053247;28;20108;-88
2021/06/21 08:11:46;;;;;;;4.10;1.40;;;;;;;;;;5053109;28;20021;-88
2021/06/21 08:14:11;;;;;;;2.45;1.90;;;;;;;;;;5076383;28;20511;-88
2021/06/21 08:16:36;;;;;;;2.72;1.85;;;;;;;;;;5052525;28;20017;-88
2021/06/21 08:19:02;;;;;;;2.90;1.75;;;;;;;;;;5053000;28;20059;-87
2021/06/21 08:21:27;;;;;;;3.05;2.10;;;;;;;;;;5049286;28;20029;-87
2021/06/21 08:23:53;;;;;;;2.97;2.38;;;;;;;;;;5052923;28;20384;-88
2021/06/21 08:26:18;;;;;;;2.83;2.00;;;;;;;;;;5052893;28;20075;-88
2021/06/21 08:28:43;;;;;;;3.90;2.08;;;;;;;;;;5053013;28;20025;-88
2021/06/21 08:31:09;;;;;;;3.33;2.50;;;;;;;;;;5052204;28;20490;-87
2021/06/21 08:33:34;;;;;;;2.78;2.10;;;;;;;;;;5044788;28;20055;-88
2021/06/21 08:36:01;;;;;;;4.85;2.58;;;;;;;;;;5050575;28;20056;-87
2021/06/21 08:38:26;;;;;;;5.32;2.33;;;;;;;;;;5050640;28;20029;-87
2021/06/21 08:40:51;;;;;;;4.47;2.88;;;;;;;;;;5052740;28;20494;-87
2021/06/21 08:43:16;;;;;;;4.80;2.28;;;;;;;;;;5052623;28;20037;-86
2021/06/21 08:45:42;;;;;;;3.45;2.58;;;;;;;;;;5053756;28;20032;-87
2021/06/21 08:48:08;;;;;;;5.07;2.33;;;;;;;;;;5052800;28;20012;-87
2021/06/21 08:50:34;;;;;;;3.65;2.58;;;;;;;;;;5053682;28;20069;-87
2021/06/21 08:53:00;;;;;;;3.97;2.20;;;;;;;;;;5051775;28;20033;-87
2021/06/21 08:55:25;;;;;;;3.95;2.67;;;;;;;;;;5045097;28;20025;-87
2021/06/21 08:57:50;;;;;;;4.18;2.55;;;;;;;;;;5048579;28;20028;-88
2021/06/21 09:00:17;;;;;;;3.33;2.85;;;;;;;;;;5047716;28;20025;-87
2021/06/21 09:02:43;;;;;;;5.10;2.92;;;;;;;;;;5050010;28;20381;-87
2021/06/21 09:05:09;;;;;;;3.83;2.67;;;;;;;;;;5046287;28;20052;-87
2021/06/21 09:07:35;;;;;;;2.67;1.90;;;;;;;;;;5046366;28;20018;-87
2021/06/21 09:10:08;;;;;;;4.82;1.85;;;;;;;;;;5052206;28;20083;-87
2021/06/21 09:12:33;;;;;;;2.28;1.80;;;;;;;;;;5051758;28;20089;-86
2021/06/21 09:14:59;;;;;;;3.53;2.30;;;;;;;;;;5052123;28;20429;-87
2021/06/21 09:17:26;;;;;;;7.18;2.47;;;;;;;;;;5052341;28;20417;-88
2021/06/21 09:19:53;;;;;;;2.53;2.05;;;;;;;;;;5052103;28;20036;-88
2021/06/21 09:22:28;;;;;;;4.63;2.45;;;;;;;;;;5052164;28;20099;-88
2021/06/21 09:24:57;;;;;;;2.97;2.53;;;;;;;;;;5050943;28;20119;-88
2021/06/21 09:27:23;;;;;;;3.63;2.45;;;;;;;;;;5047212;28;20017;-87
2021/06/21 09:29:48;;;;;;;2.97;2.58;;;;;;;;;;5051546;28;20083;-87
2021/06/21 09:32:14;;;;;;;3.78;2.00;;;;;;;;;;5053027;28;20126;-88
2021/06/21 09:34:41;;;;;;;3.35;2.20;;;;;;;;;;5053233;28;20477;-88
2021/06/21 09:37:17;;;;;;;2.75;1.90;;;;;;;;;;5048420;28;20108;-88
2021/06/21 09:39:44;;;;;;;2.30;2.05;;;;;;;;;;5041404;28;20029;-88
2021/06/21 09:42:12;;;;;;;2.10;1.90;;;;;;;;;;5049297;28;20013;-88
2021/06/21 09:44:38;;;;;;;1.58;1.27;;;;;;;;;;5051240;28;20468;-88
2021/06/21 09:47:29;;;;;;;2.30;1.40;;;;;;;;;;5051387;28;20031;-88
2021/06/21 09:50:07;;;;;;;1.85;1.52;;;;;;;;;;5050556;28;20266;-88
2021/06/21 09:52:42;;;;;;;1.35;1.25;;;;;;;;;;5051928;28;20387;-88
2021/06/21 09:55:10;;;;;;;4.32;1.70;;;;;;;;;;5051990;28;20021;-88
2021/06/21 09:57:36;;;;;;;2.13;1.65;;;;;;;;;;5051903;28;20491;-88
2021/06/21 10:00:03;;;;;;;1.90;1.70;;;;;;;;;;5051507;28;20032;-88
2021/06/21 10:02:28;;;;;;;3.72;2.05;;;;;;;;;;5051508;28;20025;-88
2021/06/21 10:04:53;;;;;;;2.25;1.70;;;;;;;;;;5051600;28;20031;-88
2021/06/21 10:07:28;;;;;;;2.22;2.03;;;;;;;;;;5052382;28;20052;-87
2021/06/21 10:09:54;;;;;;;2.47;1.90;;;;;;;;;;5051954;28;20024;-87
2021/06/21 10:12:19;;;;;;;2.80;2.10;;;;;;;;;;5051190;28;20021;-87
2021/06/21 10:14:45;;;;;;;3.10;2.75;;;;;;;;;;5052567;28;20139;-87
2021/06/21 10:17:10;;;;;;;2.90;2.60;;;;;;;;;;5052129;28;20029;-87
2021/06/21 10:19:35;;;;;;;9.20;3.88;;;;;;;;;;5051240;28;20108;-87
2021/06/21 10:22:00;;;;;;;5.18;3.13;;;;;;;;;;5049527;28;20025;-87
2021/06/21 10:24:31;;;;;;;4.03;3.40;;;;;;;;;;5050855;28;20375;-87
2021/06/21 10:26:56;;;;;;;6.63;3.22;;;;;;;;;;5043703;28;20071;-86
2021/06/21 10:29:22;;;;;;;4.07;3.50;;;;;;;;;;5051109;28;20028;-88
2021/06/21 10:31:48;;;;;;;3.30;3.00;;;;;;;;;;5051134;28;20051;-87
2021/06/21 10:34:15;;;;;;;3.55;2.83;;;;;;;;;;5050934;28;20044;-87
2021/06/21 10:36:43;;;;;;;4.25;3.28;;;;;;;;;;5050663;28;20499;-87
2021/06/21 10:39:14;;;;;;;6.75;3.20;;;;;;;;;;5050942;28;20013;-87
2021/06/21 10:41:40;;;;;;;4.15;3.25;;;;;;;;;;5070709;28;20376;-87
2021/06/21 10:44:05;;;;;;;5.22;3.70;;;;;;;;;;5050824;28;20021;-86
2021/06/21 10:46:32;;;;;;;8.73;3.50;;;;;;;;;;5050849;28;20013;-87
2021/06/21 10:48:57;;;;;;;6.05;3.47;;;;;;;;;;5050621;28;20021;-87
2021/06/21 10:51:34;;;;;;;4.43;3.72;;;;;;;;;;5050404;28;20071;-87
2021/06/21 10:54:00;;;;;;;5.03;3.45;;;;;;;;;;5053934;28;20017;-88
2021/06/21 10:56:44;;;;;;;4.82;4.32;;;;;;;;;;5050377;28;20505;-87
2021/06/21 10:59:11;;;;;;;5.05;4.28;;;;;;;;;;5047471;28;20025;-87
2021/06/21 11:01:43;;;;;;;4.03;3.63;;;;;;;;;;5054749;28;20051;-87
2021/06/21 11:04:08;;;;;;;;;;;;;;;;;;5054611;28;20104;-86
2021/06/21 11:06:34;;;;;;;5.32;4.40;;;;;;;;;;5054649;28;20005;-87
2021/06/21 11:08:59;;;;;;;6.25;4.25;;;;;;;;;;5045800;28;20128;-87
2021/06/21 11:11:34;;;;;;;6.40;4.22;;;;;;;;;;5045245;28;20427;-87
2021/06/21 11:14:06;;;;;;;4.40;3.95;;;;;;;;;;5054124;28;20025;-87
2021/06/21 11:16:31;;;;;;;5.68;4.57;;;;;;;;;;5050386;28;20028;-86
2021/06/21 11:18:56;;;;;;;5.60;4.40;;;;;;;;;;5053474;28;20025;-87
2021/06/21 11:21:25;;;;;;;4.20;3.65;;;;;;;;;;5051684;28;20400;-87
2021/06/21 11:23:51;;;;;;;5.45;4.30;;;;;;;;;;5053291;28;20250;-88
2021/06/21 11:26:16;;;;;;;9.32;4.50;;;;;;;;;;5053969;28;20107;-87
2021/06/21 11:28:42;;;;;;;5.57;4.72;;;;;;;;;;5048336;28;20395;-87
2021/06/21 11:31:22;;;;;;;5.95;4.22;;;;;;;;;;5047189;28;20409;-88
2021/06/21 11:33:56;;;;;;;5.68;4.32;;;;;;;;;;5052675;28;20480;-88
2021/06/21 11:36:40;;;;;;;4.50;4.05;;;;;;;;;;5052340;28;20040;-87
2021/06/21 11:39:23;;;;;;;5.93;4.72;;;;;;;;;;5047250;28;20021;-88
2021/06/21 11:41:52;;;;;;;6.63;4.88;;;;;;;;;;5051456;28;20063;-87
2021/06/21 11:44:37;;;;;;;4.18;3.67;;;;;;;;;;5047222;28;20013;-88
2021/06/21 11:47:21;;;;;;;6.07;5.43;;;;;;;;;;5050394;28;20116;-87
2021/06/21 11:49:48;;;;;;;5.75;4.90;;;;;;;;;;5048552;28;20486;-88
2021/06/21 11:52:20;;;;;;;6.70;4.60;;;;;;;;;;5050174;28;20021;-88
2021/06/21 11:54:46;;;;;;;7.15;4.45;;;;;;;;;;5045495;28;20021;-87
2021/06/21 11:57:12;;;;;;;3.97;3.53;;;;;;;;;;5053395;28;20021;-88
2021/06/21 11:59:39;;;;;;;4.97;3.63;;;;;;;;;;5052702;28;20159;-88
2021/06/21 12:02:06;;;;;;;4.13;3.20;;;;;;;;;;5079881;28;20025;-88
2021/06/21 12:04:31;;;;;;;4.88;4.10;;;;;;;;;;5044170;28;20025;-88
2021/06/21 12:06:56;;;;;;;5.13;4.60;;;;;;;;;;5051579;28;20032;-88
2021/06/21 12:09:22;;;;;;;5.25;4.68;;;;;;;;;;5048049;28;20396;-87
2021/06/21 12:11:51;;;;;;;5.13;4.32;;;;;;;;;;5050715;28;20018;-88
2021/06/21 12:14:18;;;;;;;4.40;3.80;;;;;;;;;;5042290;28;20063;-88
2021/06/21 12:16:44;;;;;;;10.07;4.20;;;;;;;;;;5053700;28;20021;-87
2021/06/21 12:19:09;;;;;;;8.95;4.40;;;;;;;;;;5046091;28;20523;-88
2021/06/21 12:21:36;;;;;;;9.60;4.45;;;;;;;;;;5051884;28;20047;-88
2021/06/21 12:24:15;;;;;;;6.93;5.85;;;;;;;;;;5046215;28;20127;-88
2021/06/21 12:26:40;;;;;;;6.60;5.13;;;;;;;;;;5052516;28;20032;-88
2021/06/21 12:29:19;;;;;;;8.82;6.03;;;;;;;;;;5035541;28;20237;-88
2021/06/21 12:31:51;;;;;;;10.60;6.30;;;;;;;;;;5052629;28;20450;-88
2021/06/21 12:34:16;;;;;;;5.88;5.28;;;;;;;;;;5048436;28;20026;-88
2021/06/21 12:36:42;;;;;;;4.72;4.20;;;;;;;;;;5082616;28;20112;-88
2021/06/21 12:39:07;;;;;;;5.65;4.75;;;;;;;;;;5078727;28;20107;-89
2021/06/21 12:41:33;;;;;;;6.15;4.82;;;;;;;;;;5052424;28;20025;-89
2021/06/21 12:44:06;;;;;;;5.68;4.78;;;;;;;;;;5052874;28;20021;-88
2021/06/21 12:46:33;;;;;;;6.45;4.85;;;;;;;;;;5053073;28;20162;-88
2021/06/21 12:48:59;;;;;;;4.65;3.90;;;;;;;;;;5052232;28;20041;-88
2021/06/21 12:51:24;;;;;;;6.47;4.20;;;;;;;;;;5053645;28;20036;-88
2021/06/21 12:53:50;;;;;;;5.53;4.65;;;;;;;;;;5052843;28;20067;-88
2021/06/21 12:56:20;;;;;;;8.30;4.70;;;;;;;;;;5052597;28;20112;-88
2021/06/21 12:58:45;;;;;;;8.40;4.28;;;;;;;;;;5048051;28;20029;-88
2021/06/21 13:01:19;;;;;;;4.22;3.83;;;;;;;;;;5061368;28;20029;-88
2021/06/21 13:03:44;;;;;;;8.20;4.05;;;;;;;;;;5054946;28;20036;-88
2021/06/21 13:06:10;;;;;;;5.20;4.15;;;;;;;;;;5042674;28;20063;-88
2021/06/21 13:08:36;;;;;;;5.35;4.72;;;;;;;;;;5050308;28;20099;-87
2021/06/21 13:11:08;;;;;;;6.57;5.50;;;;;;;;;;5050229;28;20069;-88
2021/06/21 13:13:36;;;;;;;7.20;6.50;;;;;;;;;;5062060;28;20031;-88
2021/06/21 13:16:06;;;;;;;7.28;6.45;;;;;;;;;;5063898;28;20035;-89
2021/06/21 13:18:48;;;;;;;8.02;6.18;;;;;;;;;;5054673;28;20060;-88
2021/06/21 13:21:13;;;;;;;7.07;5.88;;;;;;;;;;5052870;28;20047;-89
2021/06/21 13:23:45;;;;;;;8.88;5.85;;;;;;;;;;5048004;28;20021;-88
2021/06/21 13:26:11;;;;;;;5.53;4.68;;;;;;;;;;5039570;28;20025;-89
2021/06/21 13:28:42;;;;;;;7.20;4.47;;;;;;;;;;5050667;28;20115;-88
2021/06/21 13:31:07;;;;;;;7.28;5.60;;;;;;;;;;5052188;28;20028;-89
2021/06/21 13:33:32;;;;;;;6.53;5.57;;;;;;;;;;5052314;28;20089;-88
2021/06/21 13:35:59;;;;;;;7.50;5.80;;;;;;;;;;5052333;28;20471;-89
2021/06/21 13:38:31;;;;;;;6.53;5.57;;;;;;;;;;5044646;28;20037;-88
2021/06/21 13:40:58;;;;;;;5.68;4.95;;;;;;;;;;5052306;28;20025;-89
2021/06/21 13:43:24;;;;;;;5.55;4.30;;;;;;;;;;5046544;28;20486;-89
2021/06/21 13:45:50;;;;;;;4.55;4.07;;;;;;;;;;5048520;28;20108;-88
2021/06/21 13:48:18;;;;;;;9.13;5.32;;;;;;;;;;5078086;28;20102;-88
2021/06/21 13:50:48;;;;;;;10.75;6.90;;;;;;;;;;5051516;28;20036;-88
2021/06/21 13:53:30;;;;;;;11.93;7.45;;;;;;;;;;5051665;28;20028;-88
2021/06/21 13:55:56;;;;;;;7.90;6.93;;;;;;;;;;5051928;28;20480;-88
2021/06/21 13:58:31;;;;;;;9.48;7.88;;;;;;;;;;5051453;28;20374;-88
2021/06/21 14:00:56;;;;;;;10.73;7.35;;;;;;;;;;5051529;28;20017;-88
2021/06/21 14:03:23;;;;;;;8.98;7.20;;;;;;;;;;5051735;28;20480;-88
2021/06/21 14:05:49;;;;;;;8.07;6.57;;;;;;;;;;5051864;28;20009;-89
2021/06/21 14:08:14;;;;;;;9.45;7.93;;;;;;;;;;5051665;28;20070;-89
2021/06/21 14:10:40;;;;;;;9.10;7.78;;;;;;;;;;5051401;28;20059;-88
2021/06/21 14:13:05;;;;;;;13.15;7.47;;;;;;;;;;5052002;28;20031;-88
2021/06/21 14:15:30;;;;;;;11.45;8.32;;;;;;;;;;5048686;28;20040;-88
2021/06/21 14:17:55;;;;;;;11.80;8.65;;;;;;;;;;5051668;28;20044;-89
2021/06/21 14:20:21;;;;;;;11.27;8.18;;;;;;;;;;5043702;28;20499;-88
2021/06/21 14:22:46;;;;;;;9.85;8.30;;;;;;;;;;5051479;28;20075;-88
2021/06/21 14:25:11;;;;;;;9.32;7.57;;;;;;;;;;5051248;28;20017;-88
2021/06/21 14:27:37;;;;;;;14.25;7.65;;;;;;;;;;5052397;28;20396;-89
2021/06/21 14:30:02;;;;;;;12.27;8.77;;;;;;;;;;5055483;28;20049;-90
2021/06/21 14:32:27;;;;;;;9.75;7.10;;;;;;;;;;5055030;28;20659;-89
2021/06/21 14:34:53;;;;;;;10.77;6.35;;;;;;;;;;5065964;28;20017;-88
2021/06/21 14:37:18;;;;;;;10.13;6.13;;;;;;;;;;5054802;28;20070;-89
2021/06/21 14:39:43;;;;;;;9.93;7.28;;;;;;;;;;5055323;28;20021;-88